GMT,Max TemperatureF,Mean TemperatureF,Min TemperatureF,Max Dew PointF,MeanDew PointF,Min DewpointF,Max Humidity, Mean Humidity, Min Humidity, Max Sea Level PressureIn, Mean Sea Level PressureIn, Min Sea Level PressureIn, Max VisibilityMiles, Mean VisibilityMiles, Min VisibilityMiles, Max Wind SpeedMPH, Mean Wind SpeedMPH, Max Gust SpeedMPH,PrecipitationIn, CloudCover, Events, WindDirDegrees
2014-2-1,42,38,35,41,35,28,93,80,65,28.82,28.65,28.47,6,6,4,28,15,40,0.00,5,Rain,186
2014-2-2,46,44,41,39,37,34,87,79,70,29.50,29.26,28.85,6,6,6,28,21,40,0.00,4,Rain,219
2014-2-3,48,45,42,39,36,34,76,70,62,29.50,29.44,29.39,6,6,6,22,16,34,0.00,4,,154
2014-2-4,44,40,35,37,34,32,87,79,70,29.36,29.23,29.06,6,6,6,17,12,,0.00,4,Rain,144
2014-2-5,44,42,39,39,38,36,93,87,76,29.03,28.75,28.59,6,6,4,17,12,,0.00,6,Rain,88
2014-2-6,46,39,32,41,38,30,93,87,81,29.09,28.98,28.74,6,6,6,21,12,30,0.00,4,Rain,238
2014-2-7,44,36,28,37,33,28,100,86,70,29.12,29.06,28.85,6,6,3,15,7,,0.00,3,,230
2014-2-8,44,40,37,39,36,34,93,83,71,28.82,28.38,28.20,6,6,5,20,14,30,0.00,5,Rain,155
2014-2-9,44,42,39,39,37,36,93,84,76,28.91,28.56,28.26,6,6,4,26,19,38,0.00,4,Rain,236
2014-2-10,44,38,32,39,35,28,93,85,76,29.33,29.15,28.91,6,6,6,21,16,,0.00,4,Rain,237
2014-2-11,42,38,33,34,31,28,93,79,61,29.30,29.07,28.97,6,6,3,21,11,,0.00,5,Rain-Snow,219
2014-2-12,41,37,33,37,33,28,93,86,75,29.15,28.76,28.23,6,6,4,23,16,28,0.00,6,Rain-Snow,192
2014-2-13,42,38,35,39,35,34,93,86,70,29.09,28.78,28.44,6,6,6,31,24,44,0.00,5,Rain,240
2014-2-14,42,38,33,39,36,34,100,89,76,29.24,28.95,28.41,6,6,2,21,14,32,0.00,4,Rain-Snow,102
2014-2-15,46,42,37,39,36,32,100,84,62,29.27,28.78,28.38,6,6,4,15,8,,0.00,6,Rain,270
2014-2-16,44,37,30,36,31,27,93,79,61,29.59,29.50,29.30,6,6,6,17,12,,0.00,3,Rain,247
2014-2-17,42,38,35,41,37,32,93,90,81,29.62,29.60,29.59,6,6,3,10,7,,0.00,5,Rain,58
2014-2-18,48,44,41,43,42,41,100,95,81,29.65,29.60,29.59,6,5,0,7,4,,0.00,6,Fog-Rain,47
2014-2-19,46,44,41,43,42,41,100,95,81,29.77,29.67,29.42,6,4,1,9,3,,0.00,7,Rain,72
2014-2-20,53,45,37,46,41,34,93,83,76,29.42,29.18,29.00,6,6,3,30,14,52,0.00,5,Rain,215
2014-2-21,46,42,37,37,36,32,93,80,71,29.21,29.17,29.09,6,6,6,28,19,25,0.00,4,Rain,223
2014-2-22,48,44,41,45,39,36,93,81,66,29.47,29.38,29.21,6,6,6,28,19,38,0.00,5,Rain,227
2014-2-23,51,48,46,48,44,41,94,81,71,29.42,29.28,29.15,6,6,3,38,26,56,0.00,3,Rain,212
2014-2-24,48,44,39,43,39,37,93,83,66,29.42,29.39,29.27,6,6,6,14,10,20,0.00,4,Rain,195
2014-2-25,50,46,42,41,37,34,81,73,58,29.36,29.19,29.09,6,6,6,30,16,39,0.00,3,Rain,191
2014-2-26,50,46,41,43,38,36,93,81,71,29.65,29.53,29.39,6,6,6,21,13,26,0.00,5,Rain,215
2014-2-27,46,40,32,39,36,30,93,83,71,29.50,29.43,29.33,6,6,6,22,13,30,0.00,3,Rain,231
2014-2-28,46,36,26,39,33,27,100,88,66,29.56,29.53,29.47,6,6,5,20,6,,0.00,2,Fog-Rain,234